sensor_id;sensor_type;location;lat;lon;timestamp;pressure;altitude;pressure_sealevel;temperature;humidity
81397;BME280;70852;49.908;8.126;2023-10-09T00:02:10;100859.06;;;12.09;84.96
81397;BME280;70852;49.908;8.126;2023-10-09T00:04:39;100852.53;;;12.05;84.74
81397;BME280;70852;49.908;8.126;2023-10-09T00:07:13;100847.81;;;12.06;85.01
81397;BME280;70852;49.908;8.126;2023-10-09T00:09:41;100852.13;;;11.98;85.29
81397;BME280;70852;49.908;8.126;2023-10-09T00:12:14;100845.97;;;12.01;84.69
81397;BME280;70852;49.908;8.126;2023-10-09T00:14:42;100840.25;;;11.98;85.01
81397;BME280;70852;49.908;8.126;2023-10-09T00:17:13;100828.69;;;11.96;84.07
81397;BME280;70852;49.908;8.126;2023-10-09T00:19:38;100830.09;;;11.85;84.39
81397;BME280;70852;49.908;8.126;2023-10-09T00:22:04;100829.38;;;11.79;84.87
81397;BME280;70852;49.908;8.126;2023-10-09T00:24:51;100825.78;;;11.79;84.96
81397;BME280;70852;49.908;8.126;2023-10-09T00:27:38;100833.56;;;11.54;86.37
81397;BME280;70852;49.908;8.126;2023-10-09T00:30:07;100820.47;;;11.68;86.41
81397;BME280;70852;49.908;8.126;2023-10-09T00:32:32;100823.13;;;11.73;85.70
81397;BME280;70852;49.908;8.126;2023-10-09T00:35:07;100818.00;;;11.81;86.36
81397;BME280;70852;49.908;8.126;2023-10-09T00:37:51;100815.59;;;11.88;86.28
81397;BME280;70852;49.908;8.126;2023-10-09T00:40:21;100816.09;;;11.90;86.01
81397;BME280;70852;49.908;8.126;2023-10-09T00:42:56;100808.81;;;11.94;85.62
81397;BME280;70852;49.908;8.126;2023-10-09T00:45:30;100810.97;;;11.97;85.72
81397;BME280;70852;49.908;8.126;2023-10-09T00:48:00;100813.03;;;11.91;85.61
81397;BME280;70852;49.908;8.126;2023-10-09T00:50:28;100817.44;;;11.92;85.08
81397;BME280;70852;49.908;8.126;2023-10-09T00:53:00;100815.78;;;11.91;84.40
81397;BME280;70852;49.908;8.126;2023-10-09T00:55:32;100809.25;;;11.87;84.49
81397;BME280;70852;49.908;8.126;2023-10-09T00:58:11;100807.69;;;11.95;84.86
81397;BME280;70852;49.908;8.126;2023-10-09T01:00:43;100801.88;;;12.05;84.72
81397;BME280;70852;49.908;8.126;2023-10-09T01:03:08;100798.25;;;11.96;85.07
81397;BME280;70852;49.908;8.126;2023-10-09T01:05:58;100799.13;;;12.05;84.94
81397;BME280;70852;49.908;8.126;2023-10-09T01:08:34;100793.13;;;12.12;85.52
81397;BME280;70852;49.908;8.126;2023-10-09T01:11:15;100785.00;;;12.15;85.05
81397;BME280;70852;49.908;8.126;2023-10-09T01:13:47;100773.88;;;12.06;86.02
81397;BME280;70852;49.908;8.126;2023-10-09T01:16:24;100773.63;;;12.17;85.77
81397;BME280;70852;49.908;8.126;2023-10-09T01:18:55;100766.28;;;12.21;85.72
81397;BME280;70852;49.908;8.126;2023-10-09T01:21:24;100768.38;;;12.15;85.74
81397;BME280;70852;49.908;8.126;2023-10-09T01:23:56;100759.94;;;12.20;84.80
81397;BME280;70852;49.908;8.126;2023-10-09T01:26:38;100762.00;;;12.06;85.01
81397;BME280;70852;49.908;8.126;2023-10-09T01:29:11;100759.50;;;11.96;85.62
81397;BME280;70852;49.908;8.126;2023-10-09T01:31:42;100766.22;;;12.03;85.41
81397;BME280;70852;49.908;8.126;2023-10-09T01:34:40;100761.50;;;12.04;85.26
81397;BME280;70852;49.908;8.126;2023-10-09T01:37:14;100762.44;;;11.99;85.47
81397;BME280;70852;49.908;8.126;2023-10-09T01:40:04;100754.44;;;11.98;85.75
81397;BME280;70852;49.908;8.126;2023-10-09T01:42:51;100765.50;;;11.98;85.80
81397;BME280;70852;49.908;8.126;2023-10-09T01:45:16;100766.06;;;12.08;85.82
81397;BME280;70852;49.908;8.126;2023-10-09T01:47:45;100761.19;;;12.05;85.84
81397;BME280;70852;49.908;8.126;2023-10-09T01:50:19;100751.47;;;12.17;85.21
81397;BME280;70852;49.908;8.126;2023-10-09T01:52:49;100750.81;;;12.20;85.27
81397;BME280;70852;49.908;8.126;2023-10-09T01:55:18;100749.00;;;12.15;84.74
81397;BME280;70852;49.908;8.126;2023-10-09T01:57:55;100738.72;;;12.07;85.43
81397;BME280;70852;49.908;8.126;2023-10-09T02:00:23;100740.97;;;12.05;85.71
81397;BME280;70852;49.908;8.126;2023-10-09T02:02:50;100753.19;;;12.04;85.40
81397;BME280;70852;49.908;8.126;2023-10-09T02:05:17;100747.69;;;12.13;85.28
81397;BME280;70852;49.908;8.126;2023-10-09T02:07:45;100742.66;;;12.15;85.36
81397;BME280;70852;49.908;8.126;2023-10-09T02:10:20;100739.41;;;12.21;85.33
81397;BME280;70852;49.908;8.126;2023-10-09T02:12:59;100740.47;;;12.03;87.03
81397;BME280;70852;49.908;8.126;2023-10-09T02:15:29;100749.59;;;12.03;87.06
81397;BME280;70852;49.908;8.126;2023-10-09T02:20:47;100746.09;;;11.89;87.74
81397;BME280;70852;49.908;8.126;2023-10-09T02:23:22;100742.81;;;11.87;88.21
81397;BME280;70852;49.908;8.126;2023-10-09T02:26:00;100747.97;;;12.02;87.75
81397;BME280;70852;49.908;8.126;2023-10-09T02:28:31;100742.06;;;11.95;88.61
81397;BME280;70852;49.908;8.126;2023-10-09T02:31:00;100742.50;;;11.89;89.00
81397;BME280;70852;49.908;8.126;2023-10-09T02:33:28;100739.97;;;12.01;88.67
81397;BME280;70852;49.908;8.126;2023-10-09T02:35:58;100737.50;;;11.99;89.13
81397;BME280;70852;49.908;8.126;2023-10-09T02:38:30;100737.72;;;12.03;88.41
81397;BME280;70852;49.908;8.126;2023-10-09T02:41:02;100736.09;;;12.10;88.48
81397;BME280;70852;49.908;8.126;2023-10-09T02:43:37;100732.34;;;12.06;88.48
81397;BME280;70852;49.908;8.126;2023-10-09T02:46:19;100738.88;;;12.10;88.24
81397;BME280;70852;49.908;8.126;2023-10-09T02:48:57;100733.66;;;12.09;87.10
81397;BME280;70852;49.908;8.126;2023-10-09T02:51:28;100736.88;;;12.02;86.91
81397;BME280;70852;49.908;8.126;2023-10-09T02:53:53;100734.09;;;11.94;86.87
81397;BME280;70852;49.908;8.126;2023-10-09T02:56:20;100732.56;;;11.88;87.06
81397;BME280;70852;49.908;8.126;2023-10-09T02:59:05;100730.13;;;11.86;87.31
81397;BME280;70852;49.908;8.126;2023-10-09T03:01:39;100733.22;;;11.85;87.42
81397;BME280;70852;49.908;8.126;2023-10-09T03:04:09;100713.78;;;11.76;87.43
81397;BME280;70852;49.908;8.126;2023-10-09T03:06:38;100713.16;;;11.79;87.42
81397;BME280;70852;49.908;8.126;2023-10-09T03:09:09;100716.53;;;11.76;87.42
81397;BME280;70852;49.908;8.126;2023-10-09T03:11:48;100707.09;;;11.77;87.27
81397;BME280;70852;49.908;8.126;2023-10-09T03:14:19;100707.50;;;11.62;87.70
81397;BME280;70852;49.908;8.126;2023-10-09T03:16:45;100709.69;;;11.73;87.28
81397;BME280;70852;49.908;8.126;2023-10-09T03:19:16;100708.34;;;11.71;87.70
81397;BME280;70852;49.908;8.126;2023-10-09T03:21:42;100707.94;;;11.78;87.16
81397;BME280;70852;49.908;8.126;2023-10-09T03:24:07;100702.63;;;11.67;87.36
81397;BME280;70852;49.908;8.126;2023-10-09T03:26:38;100707.94;;;11.78;86.84
81397;BME280;70852;49.908;8.126;2023-10-09T03:29:06;100711.09;;;11.85;86.54
81397;BME280;70852;49.908;8.126;2023-10-09T03:31:34;100709.41;;;11.75;87.46
81397;BME280;70852;49.908;8.126;2023-10-09T03:34:03;100711.44;;;11.69;87.25
81397;BME280;70852;49.908;8.126;2023-10-09T03:36:31;100707.53;;;11.70;87.46
81397;BME280;70852;49.908;8.126;2023-10-09T03:39:02;100704.41;;;11.63;88.37
81397;BME280;70852;49.908;8.126;2023-10-09T03:41:33;100700.53;;;11.64;88.23
81397;BME280;70852;49.908;8.126;2023-10-09T03:44:00;100698.56;;;11.65;88.77
81397;BME280;70852;49.908;8.126;2023-10-09T03:46:25;100691.56;;;11.67;88.76
81397;BME280;70852;49.908;8.126;2023-10-09T03:49:00;100695.34;;;11.71;89.08
81397;BME280;70852;49.908;8.126;2023-10-09T03:51:27;100690.13;;;11.70;89.76
81397;BME280;70852;49.908;8.126;2023-10-09T03:53:53;100685.06;;;11.63;89.22
81397;BME280;70852;49.908;8.126;2023-10-09T03:56:21;100694.84;;;11.69;89.07
81397;BME280;70852;49.908;8.126;2023-10-09T03:58:50;100688.69;;;11.72;89.46
81397;BME280;70852;49.908;8.126;2023-10-09T04:01:22;100692.06;;;11.69;89.05
81397;BME280;70852;49.908;8.126;2023-10-09T04:03:54;100695.66;;;11.70;89.48
81397;BME280;70852;49.908;8.126;2023-10-09T04:06:23;100693.19;;;11.68;89.37
81397;BME280;70852;49.908;8.126;2023-10-09T04:08:55;100693.81;;;11.65;90.10
81397;BME280;70852;49.908;8.126;2023-10-09T04:11:26;100692.47;;;11.77;89.94
81397;BME280;70852;49.908;8.126;2023-10-09T04:13:52;100692.97;;;11.79;89.77
81397;BME280;70852;49.908;8.126;2023-10-09T04:16:20;100692.97;;;11.79;90.17
81397;BME280;70852;49.908;8.126;2023-10-09T04:19:00;100698.53;;;11.87;90.31
81397;BME280;70852;49.908;8.126;2023-10-09T04:21:32;100709.69;;;11.96;89.99
81397;BME280;70852;49.908;8.126;2023-10-09T04:26:44;100706.41;;;11.94;89.30
81397;BME280;70852;49.908;8.126;2023-10-09T04:29:13;100705.13;;;12.00;88.71
81397;BME280;70852;49.908;8.126;2023-10-09T04:31:47;100704.16;;;12.04;88.29
81397;BME280;70852;49.908;8.126;2023-10-09T04:34:20;100700.91;;;12.02;88.25
81397;BME280;70852;49.908;8.126;2023-10-09T04:36:54;100691.16;;;12.05;87.92
81397;BME280;70852;49.908;8.126;2023-10-09T04:39:29;100706.63;;;12.06;87.53
81397;BME280;70852;49.908;8.126;2023-10-09T04:41:55;100695.66;;;11.92;87.26
81397;BME280;70852;49.908;8.126;2023-10-09T04:44:44;100703.75;;;11.89;86.87
81397;BME280;70852;49.908;8.126;2023-10-09T04:47:35;100704.56;;;11.67;88.16
81397;BME280;70852;49.908;8.126;2023-10-09T04:50:07;100710.63;;;11.69;88.20
81397;BME280;70852;49.908;8.126;2023-10-09T04:52:38;100703.13;;;11.69;88.03
81397;BME280;70852;49.908;8.126;2023-10-09T04:55:04;100711.00;;;11.76;87.49
81397;BME280;70852;49.908;8.126;2023-10-09T04:57:45;100703.41;;;11.82;87.90
81397;BME280;70852;49.908;8.126;2023-10-09T05:02:58;100697.06;;;11.81;88.18
81397;BME280;70852;49.908;8.126;2023-10-09T05:05:29;100696.53;;;11.79;88.86
81397;BME280;70852;49.908;8.126;2023-10-09T05:08:17;100704.03;;;11.79;88.67
81397;BME280;70852;49.908;8.126;2023-10-09T05:10:46;100699.63;;;11.78;88.06
81397;BME280;70852;49.908;8.126;2023-10-09T05:13:24;100696.03;;;11.77;88.53
81397;BME280;70852;49.908;8.126;2023-10-09T05:16:05;100695.84;;;11.73;88.89
81397;BME280;70852;49.908;8.126;2023-10-09T05:18:31;100693.81;;;11.65;89.37
81397;BME280;70852;49.908;8.126;2023-10-09T05:21:08;100697.16;;;11.76;88.96
81397;BME280;70852;49.908;8.126;2023-10-09T05:24:09;100696.16;;;11.72;89.05
81397;BME280;70852;49.908;8.126;2023-10-09T05:29:19;100703.44;;;11.90;88.74
81397;BME280;70852;49.908;8.126;2023-10-09T05:31:48;100706.56;;;11.97;88.15
81397;BME280;70852;49.908;8.126;2023-10-09T05:34:36;100701.38;;;11.96;87.86
81397;BME280;70852;49.908;8.126;2023-10-09T05:37:24;100702.00;;;11.93;88.41
81397;BME280;70852;49.908;8.126;2023-10-09T05:39:55;100693.69;;;11.93;88.40
81397;BME280;70852;49.908;8.126;2023-10-09T05:45:04;100696.78;;;11.91;87.90
81397;BME280;70852;49.908;8.126;2023-10-09T05:47:42;100688.00;;;11.98;87.66
81397;BME280;70852;49.908;8.126;2023-10-09T05:50:29;100689.31;;;12.00;87.53
81397;BME280;70852;49.908;8.126;2023-10-09T05:52:58;100697.13;;;11.98;87.78
81397;BME280;70852;49.908;8.126;2023-10-09T05:55:27;100704.19;;;12.13;87.43
81397;BME280;70852;49.908;8.126;2023-10-09T05:58:13;100704.84;;;12.10;87.52
81397;BME280;70852;49.908;8.126;2023-10-09T06:00:58;100700.94;;;12.11;87.73
81397;BME280;70852;49.908;8.126;2023-10-09T06:03:41;100705.34;;;12.12;87.49
81397;BME280;70852;49.908;8.126;2023-10-09T06:06:28;100700.78;;;12.07;87.95
81397;BME280;70852;49.908;8.126;2023-10-09T06:09:03;100703.19;;;12.09;87.67
81397;BME280;70852;49.908;8.126;2023-10-09T06:11:45;100714.81;;;12.20;87.19
81397;BME280;70852;49.908;8.126;2023-10-09T06:14:18;100706.19;;;12.21;87.18
81397;BME280;70852;49.908;8.126;2023-10-09T06:16:59;100714.53;;;12.30;86.94
81397;BME280;70852;49.908;8.126;2023-10-09T06:19:50;100705.56;;;12.24;87.13
81397;BME280;70852;49.908;8.126;2023-10-09T06:22:26;100702.63;;;12.29;87.15
81397;BME280;70852;49.908;8.126;2023-10-09T06:25:00;100707.50;;;12.24;87.22
81397;BME280;70852;49.908;8.126;2023-10-09T06:27:34;100712.56;;;12.30;86.85
81397;BME280;70852;49.908;8.126;2023-10-09T06:29:59;100716.00;;;12.27;87.13
81397;BME280;70852;49.908;8.126;2023-10-09T06:32:43;100718.94;;;12.31;87.00
81397;BME280;70852;49.908;8.126;2023-10-09T06:35:33;100730.69;;;12.36;87.00
81397;BME280;70852;49.908;8.126;2023-10-09T06:38:01;100726.91;;;12.32;87.15
81397;BME280;70852;49.908;8.126;2023-10-09T06:43:17;100727.28;;;12.39;86.88
81397;BME280;70852;49.908;8.126;2023-10-09T06:45:45;100724.66;;;12.43;86.76
81397;BME280;70852;49.908;8.126;2023-10-09T06:48:13;100722.44;;;12.54;86.58
81397;BME280;70852;49.908;8.126;2023-10-09T06:51:01;100730.75;;;12.62;86.83
81397;BME280;70852;49.908;8.126;2023-10-09T06:53:43;100729.81;;;12.67;86.51
81397;BME280;70852;49.908;8.126;2023-10-09T06:56:38;100725.41;;;12.74;86.17
81397;BME280;70852;49.908;8.126;2023-10-09T06:59:05;100733.72;;;12.83;86.19
81397;BME280;70852;49.908;8.126;2023-10-09T07:01:47;100727.22;;;12.79;86.03
81397;BME280;70852;49.908;8.126;2023-10-09T07:04:35;100732.91;;;12.82;86.71
81397;BME280;70852;49.908;8.126;2023-10-09T07:07:01;100730.81;;;12.88;85.58
81397;BME280;70852;49.908;8.126;2023-10-09T07:09:33;100734.09;;;12.99;85.95
81397;BME280;70852;49.908;8.126;2023-10-09T07:12:09;100734.59;;;13.01;86.05
81397;BME280;70852;49.908;8.126;2023-10-09T07:14:54;100734.28;;;13.02;85.85
81397;BME280;70852;49.908;8.126;2023-10-09T07:17:19;100733.13;;;13.12;85.98
81397;BME280;70852;49.908;8.126;2023-10-09T07:19:53;100727.59;;;13.12;85.58
81397;BME280;70852;49.908;8.126;2023-10-09T07:22:19;100719.13;;;13.17;85.22
81397;BME280;70852;49.908;8.126;2023-10-09T07:24:47;100720.75;;;13.27;85.18
81397;BME280;70852;49.908;8.126;2023-10-09T07:27:31;100722.72;;;13.35;85.54
81397;BME280;70852;49.908;8.126;2023-10-09T07:30:21;100721.06;;;13.51;85.26
81397;BME280;70852;49.908;8.126;2023-10-09T07:33:00;100722.06;;;13.55;84.67
81397;BME280;70852;49.908;8.126;2023-10-09T07:35:41;100723.00;;;13.59;84.84
81397;BME280;70852;49.908;8.126;2023-10-09T07:38:23;100721.03;;;13.68;84.32
81397;BME280;70852;49.908;8.126;2023-10-09T07:40:54;100730.03;;;13.65;84.90
81397;BME280;70852;49.908;8.126;2023-10-09T07:43:35;100728.84;;;13.83;84.25
81397;BME280;70852;49.908;8.126;2023-10-09T07:46:07;100734.72;;;13.90;83.84
81397;BME280;70852;49.908;8.126;2023-10-09T07:48:53;100736.63;;;13.99;83.15
81397;BME280;70852;49.908;8.126;2023-10-09T07:51:20;100736.59;;;14.16;83.68
81397;BME280;70852;49.908;8.126;2023-10-09T07:53:50;100738.56;;;14.15;82.44
81397;BME280;70852;49.908;8.126;2023-10-09T07:56:25;100730.34;;;14.27;81.34
81397;BME280;70852;49.908;8.126;2023-10-09T07:58:56;100733.88;;;14.45;81.81
81397;BME280;70852;49.908;8.126;2023-10-09T08:01:27;100761.47;;;14.59;81.47
81397;BME280;70852;49.908;8.126;2023-10-09T08:04:04;100762.38;;;14.72;80.75
81397;BME280;70852;49.908;8.126;2023-10-09T08:06:41;100766.75;;;14.81;80.69
81397;BME280;70852;49.908;8.126;2023-10-09T08:09:12;100765.53;;;14.91;80.66
81397;BME280;70852;49.908;8.126;2023-10-09T08:11:38;100760.72;;;15.00;80.02
81397;BME280;70852;49.908;8.126;2023-10-09T08:14:07;100762.03;;;15.02;79.06
81397;BME280;70852;49.908;8.126;2023-10-09T08:16:48;100775.31;;;15.38;78.70
81397;BME280;70852;49.908;8.126;2023-10-09T08:19:19;100765.75;;;15.69;78.53
81397;BME280;70852;49.908;8.126;2023-10-09T08:24:50;100772.03;;;15.99;78.12
81397;BME280;70852;49.908;8.126;2023-10-09T08:27:28;100762.38;;;15.96;77.14
81397;BME280;70852;49.908;8.126;2023-10-09T08:29:58;100767.47;;;15.94;77.83
81397;BME280;70852;49.908;8.126;2023-10-09T08:32:43;100759.81;;;15.91;78.15
81397;BME280;70852;49.908;8.126;2023-10-09T08:35:26;100764.91;;;15.89;79.99
81397;BME280;70852;49.908;8.126;2023-10-09T08:37:57;100760.97;;;15.90;79.31
81397;BME280;70852;49.908;8.126;2023-10-09T08:40:43;100759.81;;;15.91;78.73
81397;BME280;70852;49.908;8.126;2023-10-09T08:43:21;100768.38;;;15.86;77.93
81397;BME280;70852;49.908;8.126;2023-10-09T08:45:49;100779.53;;;15.86;78.15
81397;BME280;70852;49.908;8.126;2023-10-09T08:48:22;100769.41;;;15.82;78.77
81397;BME280;70852;49.908;8.126;2023-10-09T08:50:51;100760.28;;;15.93;79.62
81397;BME280;70852;49.908;8.126;2023-10-09T08:53:20;100754.28;;;16.03;78.32
81397;BME280;70852;49.908;8.126;2023-10-09T08:55:46;100760.94;;;16.23;77.83
81397;BME280;70852;49.908;8.126;2023-10-09T08:58:17;100777.13;;;16.42;78.46
81397;BME280;70852;49.908;8.126;2023-10-09T09:00:51;100769.84;;;16.62;77.53
81397;BME280;70852;49.908;8.126;2023-10-09T09:03:18;100769.94;;;16.77;76.19
81397;BME280;70852;49.908;8.126;2023-10-09T09:05:46;100776.88;;;17.08;75.31
81397;BME280;70852;49.908;8.126;2023-10-09T09:08:22;100774.53;;;17.34;75.11
81397;BME280;70852;49.908;8.126;2023-10-09T09:13:44;100781.00;;;17.38;75.07
81397;BME280;70852;49.908;8.126;2023-10-09T09:16:18;100790.34;;;17.30;76.01
81397;BME280;70852;49.908;8.126;2023-10-09T09:21:18;100790.63;;;17.13;75.79
81397;BME280;70852;49.908;8.126;2023-10-09T09:23:59;100784.00;;;17.05;77.30
81397;BME280;70852;49.908;8.126;2023-10-09T09:26:34;100787.84;;;17.01;76.97
81397;BME280;70852;49.908;8.126;2023-10-09T09:29:04;100793.75;;;16.99;76.29
81397;BME280;70852;49.908;8.126;2023-10-09T09:31:31;100803.63;;;16.97;77.32
81397;BME280;70852;49.908;8.126;2023-10-09T09:34:03;100800.97;;;17.00;77.37
81397;BME280;70852;49.908;8.126;2023-10-09T09:36:34;100797.72;;;16.98;77.79
81397;BME280;70852;49.908;8.126;2023-10-09T09:38:59;100804.09;;;16.99;77.04
81397;BME280;70852;49.908;8.126;2023-10-09T09:41:26;100781.44;;;17.00;75.50
81397;BME280;70852;49.908;8.126;2023-10-09T09:43:57;100788.84;;;17.20;77.01
81397;BME280;70852;49.908;8.126;2023-10-09T09:46:31;100793.38;;;17.37;75.38
81397;BME280;70852;49.908;8.126;2023-10-09T09:49:06;100800.63;;;17.54;77.69
81397;BME280;70852;49.908;8.126;2023-10-09T09:51:41;100803.44;;;17.66;77.81
81397;BME280;70852;49.908;8.126;2023-10-09T09:54:08;100806.19;;;17.78;75.50
81397;BME280;70852;49.908;8.126;2023-10-09T09:56:36;100811.25;;;17.88;75.85
81397;BME280;70852;49.908;8.126;2023-10-09T09:59:04;100812.50;;;17.91;72.10
81397;BME280;70852;49.908;8.126;2023-10-09T10:01:38;100806.16;;;18.06;71.59
81397;BME280;70852;49.908;8.126;2023-10-09T10:04:05;100812.16;;;18.20;71.17
81397;BME280;70852;49.908;8.126;2023-10-09T10:06:37;100807.56;;;18.44;72.26
81397;BME280;70852;49.908;8.126;2023-10-09T10:09:06;100816.09;;;18.63;70.63
81397;BME280;70852;49.908;8.126;2023-10-09T10:11:45;100821.31;;;18.80;69.08
81397;BME280;70852;49.908;8.126;2023-10-09T10:14:17;100825.38;;;18.98;68.88
81397;BME280;70852;49.908;8.126;2023-10-09T10:17:06;100821.84;;;19.17;68.64
81397;BME280;70852;49.908;8.126;2023-10-09T10:22:45;100806.97;;;19.48;66.10
81397;BME280;70852;49.908;8.126;2023-10-09T10:28:20;100809.66;;;20.41;60.86
81397;BME280;70852;49.908;8.126;2023-10-09T10:31:07;100805.91;;;20.56;61.23
81397;BME280;70852;49.908;8.126;2023-10-09T10:36:22;100794.28;;;20.12;61.85
81397;BME280;70852;49.908;8.126;2023-10-09T10:41:29;100767.03;;;20.81;56.83
81397;BME280;70852;49.908;8.126;2023-10-09T10:44:03;100759.72;;;20.50;57.61
81397;BME280;70852;49.908;8.126;2023-10-09T10:46:58;100750.94;;;20.52;57.93
81397;BME280;70852;49.908;8.126;2023-10-09T10:49:23;100736.22;;;20.35;56.43
81397;BME280;70852;49.908;8.126;2023-10-09T10:51:53;100729.41;;;20.59;58.77
81397;BME280;70852;49.908;8.126;2023-10-09T10:54:49;100745.94;;;20.91;56.72
81397;BME280;70852;49.908;8.126;2023-10-09T10:57:35;100761.00;;;21.32;55.31
81397;BME280;70852;49.908;8.126;2023-10-09T11:00:28;100765.13;;;22.05;52.60
81397;BME280;70852;49.908;8.126;2023-10-09T11:03:21;100762.34;;;22.45;52.10
81397;BME280;70852;49.908;8.126;2023-10-09T11:06:03;100763.97;;;22.50;50.15
81397;BME280;70852;49.908;8.126;2023-10-09T11:08:44;100762.53;;;22.67;48.86
81397;BME280;70852;49.908;8.126;2023-10-09T11:11:19;100772.06;;;23.03;49.28
81397;BME280;70852;49.908;8.126;2023-10-09T11:13:47;100760.84;;;23.13;49.23
81397;BME280;70852;49.908;8.126;2023-10-09T11:16:19;100747.13;;;23.05;47.54
81397;BME280;70852;49.908;8.126;2023-10-09T11:19:07;100741.09;;;23.10;48.67
81397;BME280;70852;49.908;8.126;2023-10-09T11:21:50;100735.19;;;23.25;47.38
81397;BME280;70852;49.908;8.126;2023-10-09T11:24:27;100727.25;;;23.52;46.00
81397;BME280;70852;49.908;8.126;2023-10-09T11:26:58;100724.75;;;23.29;45.92
81397;BME280;70852;49.908;8.126;2023-10-09T11:29:34;100717.31;;;23.73;44.26
81397;BME280;70852;49.908;8.126;2023-10-09T11:32:15;100726.19;;;23.89;42.63
81397;BME280;70852;49.908;8.126;2023-10-09T11:34:47;100732.59;;;23.75;42.34
81397;BME280;70852;49.908;8.126;2023-10-09T11:37:19;100728.06;;;23.49;42.48
81397;BME280;70852;49.908;8.126;2023-10-09T11:39:54;100723.06;;;23.21;42.28
81397;BME280;70852;49.908;8.126;2023-10-09T11:42:24;100723.78;;;23.04;42.30
81397;BME280;70852;49.908;8.126;2023-10-09T11:47:49;100719.06;;;23.22;42.55
81397;BME280;70852;49.908;8.126;2023-10-09T11:50:46;100706.09;;;23.11;42.86
81397;BME280;70852;49.908;8.126;2023-10-09T11:53:45;100703.19;;;22.93;40.50
81397;BME280;70852;49.908;8.126;2023-10-09T11:56:33;100700.00;;;22.94;42.96
81397;BME280;70852;49.908;8.126;2023-10-09T11:58:58;100691.03;;;22.78;43.24
81397;BME280;70852;49.908;8.126;2023-10-09T12:01:29;100683.06;;;22.87;41.74
81397;BME280;70852;49.908;8.126;2023-10-09T12:04:00;100679.41;;;22.83;41.09
81397;BME280;70852;49.908;8.126;2023-10-09T12:06:25;100679.06;;;22.99;40.89
81397;BME280;70852;49.908;8.126;2023-10-09T12:08:59;100675.16;;;23.14;40.76
81397;BME280;70852;49.908;8.126;2023-10-09T12:11:24;100687.28;;;23.25;39.49
81397;BME280;70852;49.908;8.126;2023-10-09T12:13:54;100669.56;;;23.32;39.88
81397;BME280;70852;49.908;8.126;2023-10-09T12:16:26;100677.22;;;23.28;38.91
81397;BME280;70852;49.908;8.126;2023-10-09T12:18:59;100679.28;;;23.42;39.89
81397;BME280;70852;49.908;8.126;2023-10-09T12:21:27;100675.22;;;23.28;39.73
81397;BME280;70852;49.908;8.126;2023-10-09T12:23:53;100673.97;;;23.19;39.04
81397;BME280;70852;49.908;8.126;2023-10-09T12:26:22;100659.94;;;23.36;38.33
81397;BME280;70852;49.908;8.126;2023-10-09T12:28:48;100661.53;;;23.30;38.06
81397;BME280;70852;49.908;8.126;2023-10-09T12:31:15;100670.41;;;23.36;38.77
81397;BME280;70852;49.908;8.126;2023-10-09T12:33:41;100659.16;;;23.43;38.49
81397;BME280;70852;49.908;8.126;2023-10-09T12:36:11;100652.72;;;23.39;36.99
81397;BME280;70852;49.908;8.126;2023-10-09T12:38:44;100651.88;;;23.28;37.49
81397;BME280;70852;49.908;8.126;2023-10-09T12:41:17;100655.91;;;23.30;38.14
81397;BME280;70852;49.908;8.126;2023-10-09T12:43:51;100657.13;;;23.44;39.38
81397;BME280;70852;49.908;8.126;2023-10-09T12:46:20;100649.47;;;23.30;39.06
81397;BME280;70852;49.908;8.126;2023-10-09T12:48:51;100653.38;;;23.11;40.03
81397;BME280;70852;49.908;8.126;2023-10-09T12:51:19;100661.84;;;23.11;40.51
81397;BME280;70852;49.908;8.126;2023-10-09T12:53:46;100653.00;;;23.09;41.20
81397;BME280;70852;49.908;8.126;2023-10-09T12:56:14;100651.81;;;23.21;41.38
81397;BME280;70852;49.908;8.126;2023-10-09T12:58:40;100655.06;;;23.26;41.25
81397;BME280;70852;49.908;8.126;2023-10-09T13:01:17;100656.34;;;23.47;41.12
81397;BME280;70852;49.908;8.126;2023-10-09T13:03:45;100650.81;;;23.61;41.46
81397;BME280;70852;49.908;8.126;2023-10-09T13:06:17;100644.78;;;23.69;41.34
81397;BME280;70852;49.908;8.126;2023-10-09T13:08:51;100640.34;;;23.79;41.24
81397;BME280;70852;49.908;8.126;2023-10-09T13:11:19;100641.19;;;23.90;40.11
81397;BME280;70852;49.908;8.126;2023-10-09T13:13:50;100639.16;;;23.84;40.56
81397;BME280;70852;49.908;8.126;2023-10-09T13:16:19;100646.44;;;23.92;41.45
81397;BME280;70852;49.908;8.126;2023-10-09T13:18:55;100636.34;;;24.08;39.15
81397;BME280;70852;49.908;8.126;2023-10-09T13:21:27;100631.91;;;24.11;38.05
81397;BME280;70852;49.908;8.126;2023-10-09T13:23:57;100638.38;;;24.15;39.18
81397;BME280;70852;49.908;8.126;2023-10-09T13:26:29;100631.94;;;24.04;38.80
81397;BME280;70852;49.908;8.126;2023-10-09T13:28:59;100628.31;;;24.14;39.25
81397;BME280;70852;49.908;8.126;2023-10-09T13:31:25;100627.47;;;23.96;39.01
81397;BME280;70852;49.908;8.126;2023-10-09T13:33:57;100636.72;;;23.75;39.44
81397;BME280;70852;49.908;8.126;2023-10-09T13:36:27;100623.44;;;23.79;38.72
81397;BME280;70852;49.908;8.126;2023-10-09T13:38:54;100627.03;;;23.69;39.26
81397;BME280;70852;49.908;8.126;2023-10-09T13:41:22;100621.38;;;23.58;41.18
81397;BME280;70852;49.908;8.126;2023-10-09T13:43:51;100623.84;;;23.81;40.43
81397;BME280;70852;49.908;8.126;2023-10-09T13:46:18;100633.09;;;23.85;39.17
81397;BME280;70852;49.908;8.126;2023-10-09T13:48:47;100639.97;;;23.91;40.29
81397;BME280;70852;49.908;8.126;2023-10-09T13:51:20;100641.97;;;23.98;39.91
81397;BME280;70852;49.908;8.126;2023-10-09T13:53:49;100634.31;;;24.05;39.73
81397;BME280;70852;49.908;8.126;2023-10-09T13:56:18;100633.53;;;24.08;40.78
81397;BME280;70852;49.908;8.126;2023-10-09T13:58:55;100629.94;;;24.26;40.34
81397;BME280;70852;49.908;8.126;2023-10-09T14:01:21;100625.50;;;24.25;39.22
81397;BME280;70852;49.908;8.126;2023-10-09T14:03:58;100619.03;;;24.42;39.86